createdAt,value
2022-12-11T00:00:45.332Z,5.63
2022-12-11T00:03:15.816Z,8.13
2022-12-11T00:05:42.769Z,6.90
2022-12-11T00:08:09.211Z,7.00
2022-12-11T00:10:37.952Z,8.70
2022-12-11T00:13:05.266Z,9.23
2022-12-11T00:15:32.013Z,7.57
2022-12-11T00:17:58.413Z,8.30
2022-12-11T00:20:24.836Z,6.93
2022-12-11T00:22:51.268Z,7.13
2022-12-11T00:25:17.728Z,5.60
2022-12-11T00:27:45.945Z,7.57
2022-12-11T00:30:12.796Z,8.43
2022-12-11T00:32:39.184Z,6.30
2022-12-11T00:35:05.707Z,7.77
2022-12-11T00:37:32.254Z,7.93
2022-12-11T00:39:58.789Z,6.03
2022-12-11T00:42:25.236Z,6.93
2022-12-11T00:44:52.156Z,6.53
2022-12-11T00:47:18.555Z,7.27
2022-12-11T00:49:49.544Z,10.20
2022-12-11T00:52:17.934Z,5.83
2022-12-11T00:54:44.685Z,5.93
2022-12-11T00:57:11.165Z,7.73
2022-12-11T00:59:37.714Z,8.07
2022-12-11T01:02:04.117Z,5.77
2022-12-11T01:04:30.557Z,6.90
2022-12-11T01:06:56.984Z,7.77
2022-12-11T01:09:42.161Z,7.47
2022-12-11T01:12:08.587Z,7.57
2022-12-11T01:14:35.007Z,7.17
2022-12-11T01:17:01.485Z,7.47
2022-12-11T01:19:28.492Z,5.63
2022-12-11T01:21:54.935Z,5.90
2022-12-11T01:24:21.423Z,6.13
2022-12-11T01:26:47.821Z,5.17
2022-12-11T01:29:14.337Z,7.03
2022-12-11T01:31:41.271Z,5.20
2022-12-11T01:34:07.712Z,7.00
2022-12-11T01:36:34.134Z,6.07
2022-12-11T01:39:00.583Z,5.27
2022-12-11T01:41:27.011Z,5.03
2022-12-11T01:44:06.809Z,6.67
2022-12-11T01:46:35.668Z,4.60
2022-12-11T01:49:05.698Z,6.83
2022-12-11T01:51:33.654Z,6.93
2022-12-11T01:54:03.435Z,8.23
2022-12-11T01:56:31.191Z,5.60
2022-12-11T01:59:00.343Z,6.37
2022-12-11T02:01:36.999Z,5.60
2022-12-11T02:04:04.141Z,8.20
2022-12-11T02:06:39.036Z,7.07
2022-12-11T02:09:07.818Z,5.73
2022-12-11T02:12:12.937Z,5.80
2022-12-11T02:14:43.057Z,7.07
2022-12-11T02:17:28.252Z,6.23
2022-12-11T02:20:13.262Z,6.00
2022-12-11T02:22:42.598Z,7.27
2022-12-11T02:25:24.176Z,7.17
2022-12-11T02:27:57.242Z,6.77
2022-12-11T02:30:24.167Z,7.40
2022-12-11T02:32:55.209Z,6.83
2022-12-11T02:35:38.078Z,7.80
2022-12-11T02:38:09.050Z,8.03
2022-12-11T02:40:38.031Z,7.80
2022-12-11T02:43:07.470Z,6.87
2022-12-11T02:45:34.600Z,8.37
2022-12-11T02:48:04.194Z,7.47
2022-12-11T02:50:30.749Z,6.97
2022-12-11T02:52:57.668Z,7.87
2022-12-11T02:55:27.105Z,8.77
2022-12-11T02:58:14.047Z,7.57
2022-12-11T03:00:40.651Z,5.97
2022-12-11T03:03:07.173Z,7.13
2022-12-11T03:05:33.669Z,7.47
2022-12-11T03:08:00.134Z,9.00
2022-12-11T03:10:26.597Z,8.50
2022-12-11T03:12:55.814Z,6.80
2022-12-11T03:15:24.059Z,8.47
2022-12-11T03:18:10.625Z,7.33
2022-12-11T03:21:03.669Z,7.90
2022-12-11T03:24:04.071Z,7.93
2022-12-11T03:26:33.103Z,8.40
2022-12-11T03:29:04.999Z,8.73
2022-12-11T03:31:40.098Z,8.60
2022-12-11T03:34:12.394Z,8.47
2022-12-11T03:36:39.461Z,7.87
2022-12-11T03:39:09.314Z,8.90
2022-12-11T03:41:37.446Z,7.40
2022-12-11T03:44:04.134Z,7.03
2022-12-11T03:46:33.582Z,9.30
2022-12-11T03:49:06.059Z,8.30
2022-12-11T03:51:32.898Z,8.03
2022-12-11T03:53:59.854Z,9.40
2022-12-11T03:56:27.541Z,8.77
2022-12-11T03:58:54.258Z,6.80
2022-12-11T04:01:20.989Z,7.50
2022-12-11T04:03:47.459Z,8.07
2022-12-11T04:06:13.895Z,8.33
2022-12-11T04:08:40.287Z,9.20
2022-12-11T04:11:26.979Z,9.53
2022-12-11T04:14:11.858Z,8.00
2022-12-11T04:16:38.279Z,9.90
2022-12-11T04:19:23.846Z,8.23
2022-12-11T04:22:08.874Z,6.77
2022-12-11T04:24:35.783Z,8.47
2022-12-11T04:27:02.214Z,9.07
2022-12-11T04:29:28.658Z,8.07
2022-12-11T04:31:55.077Z,8.80
2022-12-11T04:34:21.537Z,8.37
2022-12-11T04:36:47.939Z,6.63
2022-12-11T04:39:14.507Z,9.13
2022-12-11T04:41:41.527Z,9.13
2022-12-11T04:44:08.348Z,10.20
2022-12-11T04:46:35.503Z,7.10
2022-12-11T04:49:02.023Z,7.53
2022-12-11T04:51:28.753Z,6.73
2022-12-11T04:53:55.528Z,8.47
2022-12-11T04:56:22.052Z,10.13
2022-12-11T04:58:48.501Z,10.07
2022-12-11T05:01:17.893Z,8.13
2022-12-11T05:03:44.378Z,8.47
2022-12-11T05:06:11.713Z,7.10
2022-12-11T05:08:40.259Z,12.07
2022-12-11T05:11:10.063Z,7.03
2022-12-11T05:13:36.560Z,8.30
2022-12-11T05:16:08.628Z,8.57
2022-12-11T05:18:35.240Z,10.30
2022-12-11T05:21:06.601Z,8.43
2022-12-11T05:23:33.658Z,7.73
2022-12-11T05:26:02.219Z,9.30
2022-12-11T05:28:33.546Z,7.50
2022-12-11T05:31:09.155Z,8.63
2022-12-11T05:33:35.610Z,9.93
2022-12-11T05:36:02.637Z,8.70
2022-12-11T05:38:29.073Z,9.50
2022-12-11T05:41:00.488Z,8.57
2022-12-11T05:43:28.265Z,9.03
2022-12-11T05:45:55.022Z,7.40
2022-12-11T05:48:21.731Z,8.00
2022-12-11T05:50:58.680Z,8.83
2022-12-11T05:53:25.598Z,13.43
2022-12-11T05:55:52.194Z,17.37
2022-12-11T05:58:18.897Z,31.23
2022-12-11T06:00:45.376Z,14.97
2022-12-11T06:03:11.914Z,9.67
2022-12-11T06:05:39.673Z,10.87
2022-12-11T06:08:06.308Z,9.60
2022-12-11T06:10:32.821Z,11.43
2022-12-11T06:12:59.351Z,10.40
2022-12-11T06:15:25.816Z,7.83
2022-12-11T06:17:52.216Z,9.23
2022-12-11T06:20:18.687Z,10.77
2022-12-11T06:22:45.098Z,11.77
2022-12-11T06:25:11.789Z,9.70
2022-12-11T06:27:38.343Z,10.50
2022-12-11T06:30:05.071Z,11.53
2022-12-11T06:32:31.505Z,12.77
2022-12-11T06:34:57.921Z,11.87
2022-12-11T06:37:24.349Z,10.73
2022-12-11T06:39:50.757Z,9.93
2022-12-11T06:42:17.506Z,9.57
2022-12-11T06:44:43.917Z,12.00
2022-12-11T06:47:10.597Z,8.43
2022-12-11T06:49:37.007Z,7.70
2022-12-11T06:52:03.497Z,8.63
2022-12-11T06:54:29.911Z,9.83
2022-12-11T06:56:56.324Z,8.27
2022-12-11T06:59:22.820Z,9.13
2022-12-11T07:01:49.332Z,8.33
2022-12-11T07:04:15.876Z,9.17
2022-12-11T07:06:42.298Z,9.43
2022-12-11T07:09:08.738Z,10.13
2022-12-11T07:11:35.178Z,9.50
2022-12-11T07:14:01.685Z,9.20
2022-12-11T07:16:28.164Z,8.87
2022-12-11T07:18:54.604Z,11.63
2022-12-11T07:21:21.183Z,8.97
2022-12-11T07:23:48.647Z,9.20
2022-12-11T07:26:17.321Z,9.53
2022-12-11T07:28:43.836Z,8.73
2022-12-11T07:31:13.131Z,9.77
2022-12-11T07:33:39.897Z,12.00
2022-12-11T07:36:07.853Z,9.63
2022-12-11T07:38:34.402Z,12.07
2022-12-11T07:41:06.089Z,9.20
2022-12-11T07:43:33.606Z,9.80
2022-12-11T07:46:08.460Z,10.17
2022-12-11T07:48:36.184Z,12.83
2022-12-11T07:51:24.983Z,10.93
2022-12-11T07:53:51.418Z,10.67
2022-12-11T07:56:18.669Z,10.70
2022-12-11T07:58:45.395Z,9.60
2022-12-11T08:01:13.791Z,10.17
2022-12-11T08:03:40.506Z,12.27
2022-12-11T08:06:07.039Z,11.60
2022-12-11T08:08:33.450Z,9.37
2022-12-11T08:11:04.502Z,10.57
2022-12-11T08:13:31.417Z,10.73
2022-12-11T08:15:58.092Z,10.87
2022-12-11T08:18:24.499Z,11.30
2022-12-11T08:20:51.006Z,11.10
2022-12-11T08:23:17.488Z,13.23
2022-12-11T08:25:43.904Z,11.73
2022-12-11T08:28:10.313Z,12.97
2022-12-11T08:30:39.094Z,11.73
2022-12-11T08:33:06.549Z,10.20
2022-12-11T08:35:33.319Z,11.40
2022-12-11T08:37:59.749Z,9.73
2022-12-11T08:40:26.238Z,11.80
2022-12-11T08:42:52.633Z,10.60
2022-12-11T08:45:19.066Z,9.83
2022-12-11T08:47:45.491Z,10.77
2022-12-11T08:50:11.896Z,10.33
2022-12-11T08:52:38.322Z,10.53
2022-12-11T08:55:05.076Z,11.20
2022-12-11T08:57:31.459Z,9.53
2022-12-11T08:59:57.922Z,10.77
2022-12-11T09:02:24.347Z,10.47
2022-12-11T09:04:50.884Z,10.77
2022-12-11T09:07:17.308Z,11.90
2022-12-11T09:09:43.722Z,10.57
2022-12-11T09:12:10.137Z,12.33
2022-12-11T09:14:36.648Z,10.47
2022-12-11T09:17:05.327Z,9.40
2022-12-11T09:19:32.529Z,11.27
2022-12-11T09:21:59.238Z,12.43
2022-12-11T09:24:25.670Z,13.27
2022-12-11T09:26:52.063Z,12.93
2022-12-11T09:29:18.486Z,12.00
2022-12-11T09:31:46.390Z,11.87
2022-12-11T09:34:13.511Z,11.13
2022-12-11T09:36:41.140Z,9.53
2022-12-11T09:39:08.813Z,7.70
2022-12-11T09:41:36.952Z,10.23
2022-12-11T09:44:18.151Z,12.87
2022-12-11T09:46:45.316Z,13.27
2022-12-11T09:49:26.459Z,12.23
2022-12-11T09:52:14.040Z,12.73
2022-12-11T09:55:00.414Z,8.87
2022-12-11T09:57:52.886Z,9.40
2022-12-11T10:00:30.495Z,12.03
2022-12-11T10:03:12.049Z,10.20
2022-12-11T10:05:49.517Z,10.13
2022-12-11T10:08:55.360Z,10.30
2022-12-11T10:11:35.185Z,13.93
2022-12-11T10:14:10.589Z,10.33
2022-12-11T10:16:47.393Z,13.90
2022-12-11T10:19:27.562Z,15.60
2022-12-11T10:21:54.923Z,15.30
2022-12-11T10:27:33.686Z,11.97
2022-12-11T10:30:07.585Z,11.67
2022-12-11T10:33:16.044Z,11.20
2022-12-11T10:35:46.029Z,12.20
2022-12-11T10:38:25.555Z,12.07
2022-12-11T10:40:55.254Z,13.20
2022-12-11T10:43:32.734Z,11.17
2022-12-11T10:45:59.328Z,12.17
2022-12-11T10:48:25.818Z,13.47
2022-12-11T10:50:58.544Z,12.57
2022-12-11T10:53:25.773Z,14.17
2022-12-11T10:55:52.449Z,11.67
2022-12-11T10:58:24.273Z,11.37
2022-12-11T11:01:23.594Z,12.90
2022-12-11T11:04:07.548Z,12.13
2022-12-11T11:06:34.147Z,10.13
2022-12-11T11:09:01.635Z,11.67
2022-12-11T11:11:34.266Z,11.67
2022-12-11T11:14:09.974Z,10.60
2022-12-11T11:16:37.787Z,14.83
2022-12-11T11:19:04.343Z,14.90
2022-12-11T11:21:31.806Z,14.50
2022-12-11T11:23:58.285Z,13.87
2022-12-11T11:26:30.777Z,12.93
2022-12-11T11:29:23.102Z,12.13
2022-12-11T11:31:49.575Z,12.00
2022-12-11T11:34:21.017Z,13.30
2022-12-11T11:36:57.515Z,12.23
2022-12-11T11:39:36.097Z,12.23
2022-12-11T11:42:15.441Z,10.77
2022-12-11T11:45:03.822Z,13.07
2022-12-11T11:47:38.443Z,13.57
2022-12-11T11:50:28.276Z,13.33
2022-12-11T11:53:03.158Z,12.87
2022-12-11T11:55:43.097Z,12.37
2022-12-11T11:58:13.877Z,12.77
2022-12-11T12:00:40.340Z,19.17
2022-12-11T12:03:20.844Z,12.93
2022-12-11T12:06:18.867Z,16.03
2022-12-11T12:09:01.093Z,10.33
2022-12-11T12:11:27.469Z,12.47
2022-12-11T12:14:03.446Z,12.63
2022-12-11T12:17:14.244Z,13.70
2022-12-11T12:19:55.537Z,14.53
2022-12-11T12:22:28.049Z,13.93
2022-12-11T12:25:17.195Z,14.60
2022-12-11T12:27:52.854Z,15.83
2022-12-11T12:30:22.810Z,12.27
2022-12-11T12:33:05.737Z,12.63
2022-12-11T12:35:37.310Z,11.17
2022-12-11T12:38:25.434Z,11.03
2022-12-11T12:41:04.855Z,13.07
2022-12-11T12:43:47.782Z,11.87
2022-12-11T12:46:34.195Z,14.10
2022-12-11T12:49:01.539Z,12.87
2022-12-11T12:51:28.399Z,11.63
2022-12-11T12:53:58.110Z,12.23
2022-12-11T12:56:26.293Z,12.90
2022-12-11T12:58:52.703Z,13.37
2022-12-11T13:01:24.482Z,11.93
2022-12-11T13:04:01.638Z,12.97
2022-12-11T13:06:50.078Z,10.67
2022-12-11T13:09:26.471Z,12.17
2022-12-11T13:11:57.549Z,10.33
2022-12-11T13:14:32.631Z,14.73
2022-12-11T13:17:34.620Z,12.93
2022-12-11T13:20:28.438Z,13.73
2022-12-11T13:23:05.999Z,13.80
2022-12-11T13:25:37.445Z,11.23
2022-12-11T13:28:22.000Z,12.87
2022-12-11T13:31:14.385Z,11.57
2022-12-11T13:33:48.028Z,15.27
2022-12-11T13:36:24.574Z,14.43
2022-12-11T13:38:55.245Z,15.10
2022-12-11T13:41:21.728Z,13.77
2022-12-11T13:43:49.354Z,11.60
2022-12-11T13:46:21.353Z,13.57
2022-12-11T13:48:51.645Z,11.97
2022-12-11T13:51:21.069Z,11.83
2022-12-11T13:53:47.538Z,14.33
2022-12-11T13:56:19.931Z,10.40
2022-12-11T13:58:47.151Z,12.60
2022-12-11T14:01:32.953Z,13.13
2022-12-11T14:04:03.331Z,12.67
2022-12-11T14:06:30.821Z,14.57
2022-12-11T14:08:59.937Z,13.23
2022-12-11T14:11:31.340Z,14.17
2022-12-11T14:13:59.950Z,12.93
2022-12-11T14:16:27.537Z,11.73
2022-12-11T14:18:55.790Z,12.90
2022-12-11T14:21:24.556Z,14.17
2022-12-11T14:23:55.361Z,13.53
2022-12-11T14:26:26.831Z,14.37
2022-12-11T14:28:53.627Z,13.70
2022-12-11T14:31:37.465Z,11.27
2022-12-11T14:34:09.097Z,12.90
2022-12-11T14:36:35.999Z,13.60
2022-12-11T14:39:06.926Z,11.60
2022-12-11T14:41:39.293Z,13.73
2022-12-11T14:44:07.083Z,13.33
2022-12-11T14:46:50.511Z,11.77
2022-12-11T14:49:24.852Z,12.93
2022-12-11T14:51:53.572Z,16.23
2022-12-11T14:54:29.835Z,12.53
2022-12-11T14:56:56.765Z,12.07
2022-12-11T14:59:30.159Z,13.63
2022-12-11T15:02:00.588Z,11.50
2022-12-11T15:04:30.331Z,13.70
2022-12-11T15:06:57.347Z,14.60
2022-12-11T15:09:35.565Z,14.93
2022-12-11T15:12:28.097Z,15.37
2022-12-11T15:15:00.865Z,14.87
2022-12-11T15:17:27.760Z,16.70
2022-12-11T15:19:56.788Z,17.83
2022-12-11T15:22:25.227Z,15.03
2022-12-11T15:24:53.083Z,14.63
2022-12-11T15:27:49.346Z,19.53
2022-12-11T15:30:15.793Z,16.73
2022-12-11T15:32:42.205Z,15.20
2022-12-11T15:35:26.455Z,17.67
2022-12-11T15:37:54.287Z,13.50
2022-12-11T15:40:20.970Z,15.23
2022-12-11T15:42:47.535Z,14.43
2022-12-11T15:45:19.835Z,12.43
2022-12-11T15:47:47.455Z,13.03
2022-12-11T15:50:28.255Z,15.30
2022-12-11T15:52:55.911Z,13.63
2022-12-11T15:55:23.962Z,14.20
2022-12-11T15:57:56.212Z,12.67
2022-12-11T16:00:24.039Z,17.20
2022-12-11T16:02:51.571Z,17.33
2022-12-11T16:05:18.138Z,15.40
2022-12-11T16:07:44.760Z,15.43
2022-12-11T16:10:14.712Z,16.10
2022-12-11T16:12:41.998Z,13.93
2022-12-11T16:15:09.082Z,13.43
2022-12-11T16:17:35.793Z,16.17
2022-12-11T16:20:02.273Z,14.57
2022-12-11T16:22:28.695Z,16.20
2022-12-11T16:24:55.739Z,18.00
2022-12-11T16:27:23.395Z,16.07
2022-12-11T16:29:50.684Z,18.10
2022-12-11T16:32:17.196Z,16.80
2022-12-11T16:34:43.696Z,16.23
2022-12-11T16:37:10.417Z,15.13
2022-12-11T16:39:37.809Z,16.33
2022-12-11T16:42:05.740Z,20.47
2022-12-11T16:44:32.592Z,17.47
2022-12-11T16:46:59.013Z,16.07
2022-12-11T16:49:25.447Z,17.27
2022-12-11T16:51:51.860Z,18.17
2022-12-11T16:54:18.438Z,17.20
2022-12-11T16:56:45.026Z,17.23
2022-12-11T16:59:12.764Z,15.07
2022-12-11T17:01:39.298Z,20.20
2022-12-11T17:04:05.751Z,19.30
2022-12-11T17:06:32.817Z,18.40
2022-12-11T17:08:59.229Z,17.90
2022-12-11T17:11:26.150Z,21.10
2022-12-11T17:13:54.801Z,19.10
2022-12-11T17:16:22.332Z,20.23
2022-12-11T17:18:48.777Z,18.53
2022-12-11T17:21:17.763Z,19.33
2022-12-11T17:23:44.527Z,15.30
2022-12-11T17:26:11.326Z,18.13
2022-12-11T17:28:38.377Z,18.63
2022-12-11T17:31:10.131Z,19.00
2022-12-11T17:33:36.667Z,16.53
2022-12-11T17:36:05.047Z,16.83
2022-12-11T17:38:31.560Z,19.47
2022-12-11T17:40:58.262Z,19.40
2022-12-11T17:43:24.877Z,19.70
2022-12-11T17:45:52.551Z,18.37
2022-12-11T17:48:19.710Z,20.73
2022-12-11T17:50:47.153Z,19.97
2022-12-11T17:53:15.352Z,18.83
2022-12-11T17:55:42.801Z,18.83
2022-12-11T17:58:14.932Z,17.60
2022-12-11T18:00:43.802Z,20.20
2022-12-11T18:03:10.925Z,19.63
2022-12-11T18:05:42.542Z,16.67
2022-12-11T18:08:09.187Z,19.27
2022-12-11T18:10:36.668Z,21.10
2022-12-11T18:13:03.468Z,22.60
2022-12-11T18:15:29.886Z,18.97
2022-12-11T18:17:59.589Z,17.83
2022-12-11T18:20:26.448Z,21.60
2022-12-11T18:22:53.284Z,16.20
2022-12-11T18:25:19.808Z,21.57
2022-12-11T18:27:46.473Z,23.10
2022-12-11T18:30:16.265Z,22.30
2022-12-11T18:32:44.458Z,21.30
2022-12-11T18:35:11.790Z,19.80
2022-12-11T18:37:38.472Z,21.50
2022-12-11T18:40:05.507Z,18.53
2022-12-11T18:42:33.390Z,20.33
2022-12-11T18:45:00.368Z,22.43
2022-12-11T18:47:26.800Z,20.37
2022-12-11T18:49:53.804Z,19.07
2022-12-11T18:52:20.329Z,23.13
2022-12-11T18:54:47.415Z,18.77
2022-12-11T18:57:13.811Z,21.43
2022-12-11T18:59:41.004Z,19.47
2022-12-11T19:02:07.923Z,16.93
2022-12-11T19:04:36.075Z,21.57
2022-12-11T19:07:02.620Z,20.63
2022-12-11T19:09:31.660Z,20.43
2022-12-11T19:12:02.053Z,20.33
2022-12-11T19:14:28.473Z,18.63
2022-12-11T19:16:55.273Z,19.77
2022-12-11T19:19:22.332Z,18.97
2022-12-11T19:21:49.366Z,18.57
2022-12-11T19:24:19.905Z,17.93
2022-12-11T19:26:46.413Z,20.73
2022-12-11T19:29:20.451Z,16.20
2022-12-11T19:31:46.949Z,18.77
2022-12-11T19:34:13.406Z,21.23
2022-12-11T19:36:39.825Z,18.87
2022-12-11T19:39:12.654Z,18.90
2022-12-11T19:41:40.237Z,19.90
2022-12-11T19:44:06.813Z,21.30
2022-12-11T19:46:33.648Z,18.07
2022-12-11T19:49:00.528Z,19.67
2022-12-11T19:51:33.754Z,20.00
2022-12-11T19:54:02.751Z,21.37
2022-12-11T19:56:29.697Z,17.60
2022-12-11T19:58:56.322Z,22.43
2022-12-11T20:01:30.074Z,19.70
2022-12-11T20:03:59.585Z,20.03
2022-12-11T20:06:30.896Z,19.93
2022-12-11T20:08:58.139Z,20.70
2022-12-11T20:11:24.639Z,19.20
2022-12-11T20:13:51.286Z,17.83
2022-12-11T20:16:33.386Z,19.43
2022-12-11T20:19:05.454Z,17.60
2022-12-11T20:21:31.949Z,19.93
2022-12-11T20:23:58.441Z,19.13
2022-12-11T20:26:25.371Z,19.60
2022-12-11T20:28:52.506Z,18.80
2022-12-11T20:31:23.965Z,20.30
2022-12-11T20:33:52.245Z,19.70
2022-12-11T20:36:20.546Z,18.83
2022-12-11T20:38:47.077Z,18.97
2022-12-11T20:41:15.728Z,21.03
2022-12-11T20:43:42.341Z,19.30
2022-12-11T20:46:11.760Z,21.60
2022-12-11T20:48:39.093Z,22.77
2022-12-11T20:51:07.752Z,17.73
2022-12-11T20:53:34.917Z,19.13
2022-12-11T20:56:01.850Z,19.77
2022-12-11T20:58:28.341Z,19.83
2022-12-11T21:00:54.974Z,21.97
2022-12-11T21:03:21.431Z,18.53
2022-12-11T21:05:47.823Z,22.33
2022-12-11T21:08:14.411Z,20.77
2022-12-11T21:10:42.384Z,21.10
2022-12-11T21:13:09.217Z,25.60
2022-12-11T21:15:36.743Z,22.53
2022-12-11T21:18:03.283Z,19.73
2022-12-11T21:20:29.948Z,21.77
2022-12-11T21:22:57.496Z,23.90
2022-12-11T21:25:24.758Z,19.40
2022-12-11T21:27:51.164Z,21.80
2022-12-11T21:30:17.825Z,17.63
2022-12-11T21:32:44.316Z,20.03
2022-12-11T21:35:11.803Z,23.70
2022-12-11T21:37:40.162Z,21.97
2022-12-11T21:40:07.017Z,18.97
2022-12-11T21:42:33.441Z,18.53
2022-12-11T21:45:52.179Z,19.17
2022-12-11T21:47:46.409Z,19.50
2022-12-11T21:50:12.851Z,20.00
2022-12-11T21:52:40.816Z,18.50
2022-12-11T21:55:07.378Z,16.73
2022-12-11T21:57:33.812Z,19.07
2022-12-11T22:00:00.258Z,18.83
2022-12-11T22:02:26.734Z,19.73
2022-12-11T22:04:53.262Z,17.67
2022-12-11T22:07:19.666Z,22.43
2022-12-11T22:09:46.069Z,21.30
2022-12-11T22:12:23.376Z,20.63
2022-12-11T22:14:50.007Z,17.97
2022-12-11T22:17:18.116Z,16.53
2022-12-11T22:19:45.574Z,20.80
2022-12-11T22:22:12.389Z,18.93
2022-12-11T22:24:39.672Z,21.23
2022-12-11T22:27:06.340Z,16.23
2022-12-11T22:29:32.945Z,17.47
2022-12-11T22:31:59.369Z,18.30
2022-12-11T22:34:25.790Z,18.10
2022-12-11T22:36:52.295Z,16.60
2022-12-11T22:39:18.777Z,18.73
2022-12-11T22:41:45.174Z,17.10
2022-12-11T22:44:17.977Z,17.03
2022-12-11T22:46:49.871Z,16.30
2022-12-11T22:49:18.162Z,17.43
2022-12-11T22:51:44.636Z,17.47
2022-12-11T22:54:11.387Z,16.83
2022-12-11T22:56:38.433Z,17.57
2022-12-11T22:59:04.845Z,17.73
2022-12-11T23:01:31.295Z,16.33
2022-12-11T23:03:57.762Z,16.60
2022-12-11T23:06:24.845Z,17.67
2022-12-11T23:08:52.709Z,14.80
2022-12-11T23:11:31.793Z,15.13
2022-12-11T23:13:58.238Z,17.00
2022-12-11T23:16:25.763Z,15.23
2022-12-11T23:18:52.992Z,14.30
2022-12-11T23:21:20.049Z,16.40
2022-12-11T23:23:46.514Z,16.37
2022-12-11T23:26:13.748Z,17.33
2022-12-11T23:28:40.671Z,18.67
2022-12-11T23:31:07.827Z,15.90
2022-12-11T23:33:34.321Z,13.80
2022-12-11T23:36:00.823Z,16.10
2022-12-11T23:38:27.274Z,13.73
2022-12-11T23:40:53.788Z,14.83
2022-12-11T23:43:20.218Z,17.07
2022-12-11T23:45:46.805Z,16.67
2022-12-11T23:48:13.752Z,14.43
2022-12-11T23:50:41.394Z,16.80
2022-12-11T23:53:07.937Z,14.07
2022-12-11T23:55:34.481Z,14.13
2022-12-11T23:58:00.933Z,14.93
